Time;durP1;ratioP1;P1;durP2;ratioP2;P2;SDS_P1;SDS_P2;PMS_P1;PMS_P2;Temp;Humidity;BMP_temperature;BMP_pressure;BME280_temperature;BME280_humidity;BME280_pressure;Samples;Min_cycle;Max_cycle;Signal;HPM_P1;HPM_P2
2021/12/04 00:00:03;;;;;;;16.00;9.50;;;;;;;-1.38;71.63;99744.79;88464;1269;89343;-67
2021/12/04 00:02:35;;;;;;;12.50;7.40;;;;;;;-1.44;71.69;99745.83;88463;1269;94569;-68
2021/12/04 00:04:47;;;;;;;13.70;7.80;;;;;;;-1.46;71.82;99749.15;88523;1268;77783;-68
2021/12/04 00:07:00;;;;;;;17.50;7.30;;;;;;;-1.48;71.57;99742.23;88442;1269;82817;-65
2021/12/04 00:09:11;;;;;;;12.70;7.00;;;;;;;-1.52;71.66;99746.67;88481;1275;97302;-65
2021/12/04 00:11:20;;;;;;;14.10;7.50;;;;;;;-1.55;71.91;99747.63;88498;1268;89239;-68
2021/12/04 00:13:29;;;;;;;13.00;8.30;;;;;;;-1.60;71.75;99749.54;88485;1268;94263;-67
2021/12/04 00:15:41;;;;;;;14.90;8.90;;;;;;;-1.65;71.84;99751.91;88473;1268;79871;-66
2021/12/04 00:17:50;;;;;;;15.30;10.50;;;;;;;-1.71;71.85;99759.27;88532;1266;80646;-63
2021/12/04 00:20:03;;;;;;;15.10;7.50;;;;;;;-1.75;72.11;99759.45;88472;1275;98778;-63
2021/12/04 00:22:15;;;;;;;14.40;8.60;;;;;;;-1.77;71.90;99757.44;88452;1271;85961;-64
2021/12/04 00:24:25;;;;;;;12.40;8.30;;;;;;;-1.76;72.04;99750.88;88470;1275;95654;-64
2021/12/04 00:26:34;;;;;;;13.80;8.40;;;;;;;-1.74;72.01;99752.13;88498;1276;80768;-65
2021/12/04 00:28:43;;;;;;;18.10;8.90;;;;;;;-1.71;72.15;99754.14;88479;1272;82801;-66
2021/12/04 00:30:53;;;;;;;17.10;8.90;;;;;;;-1.65;72.31;99751.69;88542;1272;96937;-65
2021/12/04 00:33:09;;;;;;;20.30;11.20;;;;;;;-1.63;72.53;99751.52;88483;1272;88472;-64
2021/12/04 00:35:33;;;;;;;19.50;11.40;;;;;;;-1.59;72.52;99746.40;88442;1278;94742;-63
2021/12/04 00:38:17;;;;;;;20.30;10.80;;;;;;;-1.53;72.41;99741.50;88468;1275;78382;-66
2021/12/04 00:50:16;;;;;;;16.30;8.30;;;;;;;-1.73;72.38;99729.38;88476;1269;78662;-66
2021/12/04 00:52:25;;;;;;;17.30;8.00;;;;;;;-1.79;72.30;99731.84;88523;1272;82912;-65
2021/12/04 00:54:35;;;;;;;16.30;8.80;;;;;;;-1.85;72.24;99731.45;88491;1269;99566;-65
2021/12/04 00:56:46;;;;;;;16.60;9.70;;;;;;;-1.86;72.51;99728.33;88537;1268;88391;-63
2021/12/04 00:58:55;;;;;;;16.60;8.40;;;;;;;-1.87;72.51;99724.77;88468;1269;93377;-63
2021/12/04 01:01:05;;;;;;;18.50;8.30;;;;;;;-1.88;72.40;99717.54;88467;1269;80619;-65
2021/12/04 01:03:14;;;;;;;16.00;7.70;;;;;;;-1.89;72.33;99711.99;88476;1269;80431;-65
2021/12/04 01:05:24;;;;;;;15.80;8.80;;;;;;;-1.87;72.53;99713.48;88483;1268;98763;-65
2021/12/04 01:07:34;;;;;;;17.70;8.10;;;;;;;-1.82;72.66;99709.54;88441;1268;87329;-63
2021/12/04 01:09:44;;;;;;;14.90;7.90;;;;;;;-1.76;72.52;99709.35;88454;1269;94974;-63
2021/12/04 01:11:56;;;;;;;15.80;8.50;;;;;;;-1.68;72.66;99705.34;88509;1269;80135;-65
2021/12/04 01:14:09;;;;;;;17.50;8.60;;;;;;;-1.61;72.64;99699.48;88501;1268;79973;-66
2021/12/04 01:16:21;;;;;;;13.70;7.90;;;;;;;-1.60;72.60;99694.39;88498;1269;97986;-63
2021/12/04 01:18:31;;;;;;;16.50;8.10;;;;;;;-1.62;72.72;99687.93;88493;1268;86952;-63
2021/12/04 01:20:43;;;;;;;17.30;8.10;;;;;;;-1.65;72.58;99683.52;88435;1269;93409;-63
2021/12/04 01:22:53;;;;;;;16.90;9.20;;;;;;;-1.67;72.68;99677.00;88506;1272;77225;-64
2021/12/04 01:25:02;;;;;;;16.00;8.80;;;;;;;-1.66;72.36;99677.67;88506;1269;81016;-63
2021/12/04 01:27:13;;;;;;;16.00;8.00;;;;;;;-1.66;72.43;99675.89;88481;1268;99056;-64
2021/12/04 01:29:23;;;;;;;18.10;9.10;;;;;;;-1.68;72.45;99673.59;88498;1268;87915;-66
2021/12/04 01:31:32;;;;;;;16.90;8.90;;;;;;;-1.70;72.44;99675.56;88489;1272;95443;-65
2021/12/04 01:33:41;;;;;;;18.30;8.70;;;;;;;-1.69;72.26;99672.80;88523;1269;79486;-66
2021/12/04 01:35:56;;;;;;;18.30;9.00;;;;;;;-1.70;72.39;99671.47;88485;1269;82172;-66
2021/12/04 01:38:04;;;;;;;17.00;8.60;;;;;;;-1.71;72.22;99666.97;88485;1276;99058;-67
2021/12/04 01:40:18;;;;;;;16.50;8.40;;;;;;;-1.72;72.39;99661.25;88521;1272;87608;-67
2021/12/04 01:42:27;;;;;;;15.70;8.80;;;;;;;-1.74;72.26;99664.22;88473;1256;92936;-67
2021/12/04 01:44:39;;;;;;;17.50;8.50;;;;;;;-1.72;72.44;99659.98;88436;1268;78788;-67
2021/12/04 01:46:49;;;;;;;18.00;8.60;;;;;;;-1.67;72.46;99657.63;88491;1269;82375;-68
2021/12/04 01:48:58;;;;;;;17.00;8.50;;;;;;;-1.61;72.34;99659.68;88486;1268;98464;-68
2021/12/04 01:51:10;;;;;;;17.50;8.80;;;;;;;-1.55;72.31;99657.46;88454;1269;87793;-66
2021/12/04 01:53:19;;;;;;;15.70;8.30;;;;;;;-1.49;72.47;99659.52;88490;1269;94323;-67
2021/12/04 01:55:32;;;;;;;16.10;8.70;;;;;;;-1.42;72.53;99657.05;88470;1268;76738;-67
2021/12/04 01:57:40;;;;;;;17.10;8.50;;;;;;;-1.43;72.29;99656.91;88521;1275;81071;-65
2021/12/04 01:59:50;;;;;;;18.60;8.90;;;;;;;-1.42;72.18;99661.94;88519;1269;97365;-66
2021/12/04 02:02:00;;;;;;;15.80;8.70;;;;;;;-1.44;71.95;99661.95;88498;1269;88459;-67
2021/12/04 02:04:08;;;;;;;16.20;8.80;;;;;;;-1.48;72.02;99660.86;88478;1268;94713;-67
2021/12/04 02:06:20;;;;;;;14.90;7.90;;;;;;;-1.49;71.94;99651.94;88494;1272;78290;-68
2021/12/04 02:08:32;;;;;;;17.90;8.20;;;;;;;-1.52;71.84;99654.73;88491;1264;82168;-68
2021/12/04 02:10:41;;;;;;;16.60;8.60;;;;;;;-1.56;71.93;99648.76;88464;1268;97207;-67
2021/12/04 02:12:50;;;;;;;17.00;9.10;;;;;;;-1.60;71.90;99644.50;88458;1268;88013;-67
2021/12/04 02:14:59;;;;;;;18.20;8.80;;;;;;;-1.63;72.10;99635.38;88491;1275;94603;-67
2021/12/04 02:17:11;;;;;;;17.60;10.00;;;;;;;-1.65;71.96;99630.81;88476;1274;77387;-64
2021/12/04 02:19:20;;;;;;;17.30;8.80;;;;;;;-1.66;71.93;99634.73;88495;1275;79714;-64
2021/12/04 02:21:30;;;;;;;19.40;9.20;;;;;;;-1.68;72.08;99635.28;88471;1269;98091;-67
2021/12/04 02:23:39;;;;;;;18.90;9.20;;;;;;;-1.70;72.17;99631.92;88458;1278;87942;-69
2021/12/04 02:25:48;;;;;;;17.50;9.10;;;;;;;-1.70;72.12;99634.70;88453;1269;95095;-69
2021/12/04 02:28:00;;;;;;;16.80;9.10;;;;;;;-1.69;71.89;99627.73;88487;1268;79312;-69
2021/12/04 02:30:16;;;;;;;19.30;9.70;;;;;;;-1.66;72.19;99624.13;88506;1269;80977;-69
2021/12/04 02:32:25;;;;;;;17.10;9.30;;;;;;;-1.60;72.30;99626.46;88488;1268;99082;-69
2021/12/04 02:34:35;;;;;;;15.90;8.60;;;;;;;-1.52;72.45;99623.30;88527;1275;88299;-67
2021/12/04 02:36:44;;;;;;;18.60;9.80;;;;;;;-1.45;72.32;99620.58;88537;1264;93159;-64
2021/12/04 02:38:53;;;;;;;17.60;10.00;;;;;;;-1.35;72.12;99620.87;88508;1269;77350;-64
2021/12/04 02:41:03;;;;;;;18.30;9.20;;;;;;;-1.31;72.35;99622.84;88466;1269;83359;-67
2021/12/04 02:43:15;;;;;;;18.60;9.60;;;;;;;-1.29;72.08;99622.85;88534;1264;98595;-67
2021/12/04 02:45:24;;;;;;;16.60;9.00;;;;;;;-1.31;72.04;99618.93;88490;1268;88992;-67
2021/12/04 02:47:37;;;;;;;18.90;9.40;;;;;;;-1.35;71.99;99615.78;88482;1269;93246;-67
2021/12/04 02:49:49;;;;;;;17.30;9.40;;;;;;;-1.37;71.83;99615.95;88498;1268;77998;-67
2021/12/04 02:52:01;;;;;;;17.10;8.70;;;;;;;-1.39;71.84;99605.04;88546;1269;83052;-66
2021/12/04 02:54:13;;;;;;;18.10;9.90;;;;;;;-1.43;71.73;99604.10;88449;1276;97361;-64
2021/12/04 02:56:26;;;;;;;17.50;9.10;;;;;;;-1.46;71.79;99594.48;88544;1269;87176;-64
2021/12/04 02:58:36;;;;;;;19.90;9.80;;;;;;;-1.48;71.95;99596.99;88446;1269;94486;-64
2021/12/04 03:00:49;;;;;;;19.90;10.60;;;;;;;-1.50;71.84;99599.64;88483;1268;79498;-64
2021/12/04 03:02:58;;;;;;;21.30;10.30;;;;;;;-1.52;72.10;99600.36;88505;1268;80317;-67
2021/12/04 03:05:12;;;;;;;18.60;9.60;;;;;;;-1.55;71.95;99602.38;88512;1269;98076;-66
2021/12/04 03:07:22;;;;;;;15.60;9.60;;;;;;;-1.59;71.86;99597.06;88484;1268;88250;-64
2021/12/04 03:09:35;;;;;;;18.90;9.90;;;;;;;-1.60;71.90;99596.48;88472;1269;93075;-64
2021/12/04 03:11:44;;;;;;;19.80;10.40;;;;;;;-1.62;71.83;99600.30;88451;1268;80453;-65
2021/12/04 03:13:53;;;;;;;17.30;9.80;;;;;;;-1.59;72.05;99602.36;88477;1269;81553;-66
2021/12/04 03:16:05;;;;;;;19.90;10.50;;;;;;;-1.55;72.04;99604.52;88459;1278;98619;-72
2021/12/04 03:18:14;;;;;;;21.80;11.10;;;;;;;-1.47;72.09;99599.56;88488;1270;87143;-68
2021/12/04 03:20:24;;;;;;;19.90;9.80;;;;;;;-1.40;72.10;99601.41;88489;1268;94082;-68
2021/12/04 03:22:36;;;;;;;19.60;10.70;;;;;;;-1.35;72.22;99590.02;88512;1268;79930;-68
2021/12/04 03:24:45;;;;;;;20.40;10.50;;;;;;;-1.30;71.99;99588.72;88528;1269;80182;-68
2021/12/04 03:26:55;;;;;;;22.20;11.20;;;;;;;-1.29;72.12;99588.53;88519;1268;99123;-66
2021/12/04 03:29:08;;;;;;;23.20;11.90;;;;;;;-1.27;72.13;99582.08;88442;1268;86990;-66
2021/12/04 03:31:20;;;;;;;24.00;11.60;;;;;;;-1.29;71.96;99586.27;88477;1268;95199;-67
2021/12/04 03:40:57;;;;;;;21.10;12.10;;;;;;;-1.44;71.87;99563.92;88467;1276;88021;-67
2021/12/04 03:43:08;;;;;;;25.00;13.00;;;;;;;-1.47;72.04;99558.55;88466;1268;93945;-68
2021/12/04 03:45:18;;;;;;;24.30;12.80;;;;;;;-1.49;72.11;99555.75;88470;1268;78032;-68
2021/12/04 03:47:29;;;;;;;24.70;12.60;;;;;;;-1.51;71.85;99551.52;88519;1268;83325;-66
2021/12/04 03:49:38;;;;;;;22.50;12.50;;;;;;;-1.55;72.02;99545.34;88466;1272;97654;-66
2021/12/04 03:51:51;;;;;;;24.10;12.40;;;;;;;-1.56;72.24;99541.57;88481;1269;88111;-67
2021/12/04 03:54:02;;;;;;;26.80;12.80;;;;;;;-1.58;72.39;99539.02;88452;1269;95790;-67
2021/12/04 03:56:15;;;;;;;22.40;11.60;;;;;;;-1.56;72.15;99539.27;88444;1276;79043;-64
2021/12/04 03:58:25;;;;;;;20.30;11.30;;;;;;;-1.54;72.29;99536.25;88471;1269;83185;-65
2021/12/04 04:00:37;;;;;;;26.10;12.70;;;;;;;-1.49;72.33;99540.56;88498;1268;97237;-65
2021/12/04 04:02:47;;;;;;;24.90;12.50;;;;;;;-1.45;72.26;99542.48;88493;1271;90477;-64
2021/12/04 04:04:56;;;;;;;25.10;13.00;;;;;;;-1.42;72.41;99540.63;88498;1272;95504;-65
2021/12/04 04:07:06;;;;;;;26.40;13.80;;;;;;;-1.36;72.09;99535.70;88489;1275;77679;-65
2021/12/04 04:09:19;;;;;;;29.60;13.60;;;;;;;-1.37;72.26;99536.18;88497;1268;82076;-65
2021/12/04 04:11:28;;;;;;;21.00;12.40;;;;;;;-1.38;72.38;99533.21;88488;1268;99248;-63
2021/12/04 04:13:41;;;;;;;26.10;13.00;;;;;;;-1.42;72.40;99533.92;88466;1268;89232;-65
2021/12/04 04:16:00;;;;;;;26.50;13.60;;;;;;;-1.45;72.19;99528.73;88442;1269;95244;-64
2021/12/04 04:18:10;;;;;;;30.80;12.80;;;;;;;-1.47;72.34;99531.16;88471;1268;77672;-72
2021/12/04 04:20:22;;;;;;;24.80;13.60;;;;;;;-1.50;72.34;99527.77;88512;1273;80521;-73
2021/12/04 04:22:30;;;;;;;30.80;13.40;;;;;;;-1.53;72.50;99524.89;88501;1272;98342;-68
2021/12/04 04:24:42;;;;;;;28.20;14.00;;;;;;;-1.55;72.38;99521.03;88333;1269;190507;-68
2021/12/04 04:26:55;;;;;;;26.70;14.30;;;;;;;-1.58;72.28;99518.97;88443;1276;95611;-65
2021/12/04 04:29:09;;;;;;;22.60;13.40;;;;;;;-1.60;72.49;99512.59;88506;1269;79994;-66
2021/12/04 04:31:18;;;;;;;30.00;14.00;;;;;;;-1.59;72.48;99513.27;88548;1269;79881;-67
2021/12/04 04:33:36;;;;;;;27.50;13.30;;;;;;;-1.58;72.45;99517.53;88482;1276;96224;-66
2021/12/04 04:35:55;;;;;;;27.90;13.40;;;;;;;-1.55;72.56;99514.98;88455;1268;88720;-66
2021/12/04 04:38:17;;;;;;;28.40;13.60;;;;;;;-1.50;72.50;99514.49;88447;1276;94808;-67
2021/12/04 04:58:11;;;;;;;30.30;13.70;;;;;;;-1.17;72.36;99491.11;88415;1274;98173;-73
2021/12/04 05:10:22;;;;;;;29.10;13.80;;;;;;;-1.23;72.30;99485.82;88464;1268;97009;-67
2021/12/04 05:12:47;;;;;;;24.00;13.20;;;;;;;-1.24;72.25;99490.81;88499;1268;89437;-71
2021/12/04 05:15:02;;;;;;;23.30;12.60;;;;;;;-1.24;72.52;99489.89;88466;1268;95151;-72
2021/12/04 05:17:26;;;;;;;24.60;13.20;;;;;;;-1.24;72.71;99485.48;88528;1268;78521;-74
2021/12/04 05:19:42;;;;;;;19.20;9.80;;;;;;;-1.21;72.48;99485.38;88462;1268;82409;-72
2021/12/04 05:21:51;;;;;;;22.60;11.60;;;;;;;-1.15;72.63;99484.02;88436;1268;98446;-67
2021/12/04 05:24:00;;;;;;;23.80;12.10;;;;;;;-1.09;72.44;99482.74;88493;1275;88397;-67
2021/12/04 05:26:16;;;;;;;23.50;12.90;;;;;;;-1.00;72.58;99477.67;88384;1271;95034;-67
2021/12/04 05:28:26;;;;;;;19.90;11.50;;;;;;;-0.93;72.67;99474.23;88384;1271;77412;-66
2021/12/04 05:30:36;;;;;;;24.10;12.20;;;;;;;-0.91;72.53;99472.77;88409;1272;83028;-64
2021/12/04 05:32:45;;;;;;;22.20;12.00;;;;;;;-0.87;72.43;99474.39;88495;1276;98488;-67
2021/12/04 05:34:54;;;;;;;22.00;11.70;;;;;;;-0.86;72.21;99472.10;88336;1271;86982;-64
2021/12/04 05:37:03;;;;;;;23.70;13.10;;;;;;;-0.86;72.42;99471.81;88474;1274;95401;-65
2021/12/04 05:39:13;;;;;;;20.90;11.20;;;;;;;-0.87;72.68;99464.85;88474;1268;77892;-64
2021/12/04 05:41:25;;;;;;;22.30;12.20;;;;;;;-0.88;72.31;99464.05;88511;1268;82352;-64
2021/12/04 05:43:35;;;;;;;24.20;11.40;;;;;;;-0.91;72.33;99461.46;88475;1268;97978;-64
2021/12/04 05:45:47;;;;;;;25.30;12.40;;;;;;;-0.92;72.40;99454.85;88415;1275;88215;-64
2021/12/04 05:48:01;;;;;;;25.70;12.40;;;;;;;-0.95;72.34;99455.30;88434;1268;94668;-66
2021/12/04 05:50:22;;;;;;;19.90;11.30;;;;;;;-0.97;72.25;99454.98;88472;1268;78151;-66
2021/12/04 05:52:39;;;;;;;22.40;10.90;;;;;;;-1.01;72.41;99455.19;88483;1278;81181;-67
2021/12/04 05:55:10;;;;;;;22.80;11.60;;;;;;;-1.03;72.40;99454.27;88392;1277;98364;-67
2021/12/04 05:57:19;;;;;;;21.00;10.40;;;;;;;-1.02;72.49;99450.29;88466;1268;88117;-64
2021/12/04 05:59:31;;;;;;;21.20;10.70;;;;;;;-1.00;72.43;99449.21;88394;1272;93681;-65
2021/12/04 06:01:40;;;;;;;20.40;10.10;;;;;;;-0.95;72.61;99446.15;88386;1271;80077;-64
2021/12/04 06:03:49;;;;;;;20.00;10.00;;;;;;;-0.89;72.47;99444.33;88482;1268;80406;-65
2021/12/04 06:05:59;;;;;;;18.60;10.60;;;;;;;-0.81;72.52;99444.10;88488;1276;97636;-67
2021/12/04 06:08:09;;;;;;;19.30;10.20;;;;;;;-0.74;72.46;99443.63;88475;1268;87663;-68
2021/12/04 06:10:18;;;;;;;17.30;9.90;;;;;;;-0.67;72.35;99444.70;88464;1269;94685;-67
2021/12/04 06:12:26;;;;;;;17.70;10.00;;;;;;;-0.65;72.06;99443.84;88480;1269;77183;-67
2021/12/04 06:14:36;;;;;;;21.00;10.50;;;;;;;-0.62;72.25;99444.42;88463;1278;81521;-66
2021/12/04 06:16:45;;;;;;;18.00;9.00;;;;;;;-0.61;72.09;99443.30;88489;1269;99130;-67
2021/12/04 06:18:55;;;;;;;17.70;9.60;;;;;;;-0.59;72.07;99448.09;88480;1269;88141;-67
2021/12/04 06:23:32;;;;;;;18.80;9.70;;;;;;;-0.59;71.86;99453.18;88374;1271;76994;-65
2021/12/04 06:25:41;;;;;;;16.20;9.00;;;;;;;-0.56;71.92;99458.64;88401;1271;81940;-65
2021/12/04 06:27:50;;;;;;;18.10;9.70;;;;;;;-0.56;72.02;99455.83;88465;1272;98119;-64
2021/12/04 06:29:59;;;;;;;16.80;9.30;;;;;;;-0.57;71.94;99461.57;88405;1272;87582;-65
2021/12/04 06:32:09;;;;;;;18.20;9.70;;;;;;;-0.57;71.91;99466.45;88453;1269;94916;-67
2021/12/04 06:34:18;;;;;;;16.30;9.20;;;;;;;-0.59;71.97;99469.27;88506;1276;78420;-67
2021/12/04 06:36:27;;;;;;;20.30;9.60;;;;;;;-0.60;71.87;99471.29;88412;1271;80735;-65
2021/12/04 06:38:37;;;;;;;19.10;9.70;;;;;;;-0.59;71.72;99471.10;88464;1269;97467;-65
2021/12/04 06:40:50;;;;;;;17.10;9.60;;;;;;;-0.61;71.73;99473.48;88464;1275;89138;-64
2021/12/04 06:43:04;;;;;;;17.50;9.00;;;;;;;-0.62;71.77;99467.08;88464;1274;93303;-67
2021/12/04 06:45:17;;;;;;;17.30;9.00;;;;;;;-0.60;71.81;99465.62;88460;1275;80766;-65
2021/12/04 06:47:26;;;;;;;16.60;8.40;;;;;;;-0.56;71.78;99466.88;88416;1269;81116;-67
2021/12/04 06:49:40;;;;;;;15.80;8.20;;;;;;;-0.49;72.09;99469.63;88455;1269;99373;-68
2021/12/04 06:51:52;;;;;;;14.70;7.90;;;;;;;-0.41;71.89;99465.48;88492;1276;88357;-65
2021/12/04 06:54:04;;;;;;;16.80;8.10;;;;;;;-0.32;72.04;99465.33;88363;1271;95686;-65
2021/12/04 06:56:13;;;;;;;17.70;8.60;;;;;;;-0.22;72.01;99470.97;88379;1272;77497;-70
2021/12/04 06:58:23;;;;;;;14.60;8.40;;;;;;;-0.15;71.83;99472.77;88470;1268;82527;-67
2021/12/04 07:00:35;;;;;;;17.30;8.20;;;;;;;-0.08;71.88;99469.95;88477;1276;96606;-68
2021/12/04 07:02:44;;;;;;;16.40;8.00;;;;;;;-0.01;71.81;99468.59;88371;1272;89347;-65
2021/12/04 07:04:53;;;;;;;14.80;8.30;;;;;;;0.01;71.62;99467.66;88376;1271;94516;-64
2021/12/04 07:07:06;;;;;;;14.60;7.80;;;;;;;0.04;71.64;99466.67;88494;1268;80154;-67
2021/12/04 07:09:18;;;;;;;17.00;8.40;;;;;;;0.07;71.48;99465.73;88503;1268;81646;-67
2021/12/04 07:11:28;;;;;;;14.20;8.30;;;;;;;0.10;71.38;99466.67;88474;1268;98645;-64
2021/12/04 07:13:37;;;;;;;17.60;8.10;;;;;;;0.10;71.45;99467.38;88371;1274;86567;-64
2021/12/04 07:15:47;;;;;;;34.40;18.90;;;;;;;0.10;71.62;99468.60;88376;1275;93960;-65
2021/12/04 07:17:59;;;;;;;23.00;12.30;;;;;;;0.10;71.40;99468.27;88447;1275;75983;-64
2021/12/04 07:20:11;;;;;;;15.80;8.90;;;;;;;0.10;71.27;99464.29;88494;1268;83039;-64
2021/12/04 07:22:20;;;;;;;15.00;8.60;;;;;;;0.09;71.00;99468.71;88510;1268;97170;-67
2021/12/04 07:24:33;;;;;;;12.00;7.10;;;;;;;0.09;71.10;99468.55;88498;1277;87391;-66
2021/12/04 07:26:45;;;;;;;13.40;8.00;;;;;;;0.10;71.36;99471.46;88380;1271;94227;-66
2021/12/04 07:28:57;;;;;;;12.40;7.30;;;;;;;0.12;71.13;99471.00;88457;1268;77464;-67
2021/12/04 07:31:09;;;;;;;11.60;7.10;;;;;;;0.15;71.06;99474.14;88470;1276;81871;-67
2021/12/04 07:33:22;;;;;;;15.20;7.40;;;;;;;0.16;71.13;99476.83;88481;1276;97746;-68
2021/12/04 07:35:31;;;;;;;12.50;7.90;;;;;;;0.18;71.22;99475.20;88468;1276;87571;-68
2021/12/04 07:37:40;;;;;;;12.30;7.00;;;;;;;0.20;71.10;99469.93;88481;1274;95094;-65
2021/12/04 07:39:52;;;;;;;13.90;8.20;;;;;;;0.22;71.08;99469.56;88473;1268;78702;-65
2021/12/04 07:42:05;;;;;;;13.10;7.50;;;;;;;0.22;71.14;99469.21;88483;1271;82621;-65
2021/12/04 07:44:14;;;;;;;14.10;7.50;;;;;;;0.23;71.06;99466.77;88401;1271;99145;-68
2021/12/04 07:46:22;;;;;;;12.60;7.30;;;;;;;0.28;71.07;99461.90;88382;1271;88802;-67
2021/12/04 07:48:31;;;;;;;12.20;7.60;;;;;;;0.34;71.14;99465.56;88356;1276;95615;-68
2021/12/04 07:50:44;;;;;;;13.40;7.60;;;;;;;0.41;71.10;99461.98;88447;1276;78821;-70
2021/12/04 07:53:07;;;;;;;12.00;7.00;;;;;;;0.50;70.97;99460.27;88389;1271;83606;-64
2021/12/04 07:55:19;;;;;;;13.30;7.10;;;;;;;0.56;70.92;99460.74;88473;1275;97314;-64
2021/12/04 07:57:28;;;;;;;14.60;7.30;;;;;;;0.63;70.85;99460.22;88472;1268;87433;-64
2021/12/04 07:59:38;;;;;;;12.10;7.30;;;;;;;0.69;70.97;99464.30;88469;1276;93998;-64
2021/12/04 08:01:47;;;;;;;12.80;7.00;;;;;;;0.70;70.78;99459.87;88402;1278;77183;-66
2021/12/04 08:03:57;;;;;;;12.90;7.30;;;;;;;0.75;70.70;99457.96;88383;1277;80861;-67
2021/12/04 08:06:07;;;;;;;14.90;8.10;;;;;;;0.78;70.58;99460.71;88471;1268;98788;-67
2021/12/04 08:08:16;;;;;;;11.10;7.50;;;;;;;0.78;70.53;99458.20;88375;1271;88337;-67
2021/12/04 08:10:24;;;;;;;13.50;8.00;;;;;;;0.79;70.39;99457.93;88456;1268;93506;-67
2021/12/04 08:12:35;;;;;;;12.70;8.00;;;;;;;0.77;70.41;99457.29;88375;1278;77994;-67
2021/12/04 08:14:44;;;;;;;13.10;7.30;;;;;;;0.77;70.37;99452.62;88439;1268;79885;-67
2021/12/04 08:16:53;;;;;;;11.60;7.20;;;;;;;0.77;70.41;99448.34;88470;1276;97620;-69
2021/12/04 08:19:02;;;;;;;14.20;7.60;;;;;;;0.77;70.31;99450.05;88447;1268;86828;-67
2021/12/04 08:21:11;;;;;;;14.90;8.20;;;;;;;0.76;70.26;99451.89;88478;1268;95210;-67
2021/12/04 08:23:30;;;;;;;14.00;7.40;;;;;;;0.74;70.40;99450.88;88465;1275;78041;-67
2021/12/04 08:25:47;;;;;;;11.70;7.60;;;;;;;0.74;70.35;99453.10;88406;1267;80013;-66
2021/12/04 08:28:11;;;;;;;14.20;7.30;;;;;;;0.74;70.44;99450.61;88304;1278;97043;-66
2021/12/04 08:30:44;;;;;;;12.90;6.80;;;;;;;0.72;70.51;99447.97;88374;1275;87634;-67
2021/12/04 08:33:19;;;;;;;13.90;8.10;;;;;;;0.73;70.24;99445.59;88448;1269;92300;-66
2021/12/04 08:35:41;;;;;;;13.70;7.90;;;;;;;0.77;70.21;99445.20;88484;1275;79014;-64
2021/12/04 08:38:16;;;;;;;14.10;7.40;;;;;;;0.82;70.65;99444.94;88460;1269;81515;-67
2021/12/04 08:41:02;;;;;;;;;;;;;;;0.84;70.53;99435.27;88398;1271;97935;-65
2021/12/04 08:43:45;;;;;;;14.20;8.00;;;;;;;0.83;70.33;99428.80;88482;1276;88033;-67
2021/12/04 08:46:04;;;;;;;14.80;7.50;;;;;;;0.85;70.35;99426.86;88323;1278;95291;-64
2021/12/04 08:48:14;;;;;;;13.50;8.50;;;;;;;0.86;70.03;99422.88;88357;1274;79442;-65
2021/12/04 08:50:26;;;;;;;12.80;8.70;;;;;;;0.89;70.16;99425.23;88457;1275;79495;-64
2021/12/04 08:52:35;;;;;;;17.00;8.60;;;;;;;0.94;70.14;99428.59;88488;1268;98501;-65
2021/12/04 08:54:48;;;;;;;14.20;7.90;;;;;;;1.01;70.12;99427.73;88404;1278;88348;-64
2021/12/04 08:56:57;;;;;;;15.00;8.30;;;;;;;1.07;70.33;99428.33;88496;1272;93499;-65
2021/12/04 08:59:09;;;;;;;14.90;8.40;;;;;;;1.12;69.97;99434.22;88396;1275;80469;-65
2021/12/04 09:01:24;;;;;;;13.50;8.00;;;;;;;1.19;69.90;99433.89;88519;1268;80010;-67
2021/12/04 09:03:37;;;;;;;14.50;8.60;;;;;;;1.24;70.07;99429.48;88456;1268;98822;-67
2021/12/04 09:05:50;;;;;;;15.10;8.40;;;;;;;1.29;69.89;99433.40;88492;1268;87190;-66
2021/12/04 09:08:00;;;;;;;14.10;7.80;;;;;;;1.34;69.93;99435.18;88343;1277;93616;-67
2021/12/04 09:10:12;;;;;;;12.80;8.00;;;;;;;1.38;69.71;99434.04;88453;1278;78595;-67
2021/12/04 09:12:22;;;;;;;11.70;7.30;;;;;;;1.43;69.68;99424.14;88463;1274;80945;-64
2021/12/04 09:14:36;;;;;;;14.50;7.90;;;;;;;1.47;69.35;99426.93;88458;1275;98682;-62
2021/12/04 09:16:46;;;;;;;12.50;7.60;;;;;;;1.49;69.16;99421.77;88476;1276;88186;-68
2021/12/04 09:18:56;;;;;;;10.60;7.60;;;;;;;1.53;69.21;99416.89;88370;1277;95312;-64
2021/12/04 09:21:10;;;;;;;15.00;7.10;;;;;;;1.61;69.24;99413.78;88472;1278;78235;-66
2021/12/04 09:23:20;;;;;;;9.90;7.40;;;;;;;1.71;69.13;99409.39;88461;1274;83176;-65
2021/12/04 09:25:33;;;;;;;13.90;8.40;;;;;;;1.76;69.08;99404.73;88386;1272;97895;-65
2021/12/04 09:28:00;;;;;;;13.40;8.40;;;;;;;1.83;68.88;99406.05;88512;1275;88386;-68
2021/12/04 09:30:35;;;;;;;11.10;7.10;;;;;;;1.84;68.52;99406.27;88464;1271;94773;-68
2021/12/04 09:40:39;;;;;;;14.40;8.00;;;;;;;1.81;68.25;99403.55;88486;1274;87606;-65
2021/12/04 10:00:23;;;;;;;12.70;7.60;;;;;;;1.85;68.07;99394.82;88477;1268;82421;-65
2021/12/04 10:02:44;;;;;;;13.20;8.30;;;;;;;1.80;67.90;99399.23;88481;1264;96744;-66
2021/12/04 10:20:36;;;;;;;12.40;7.80;;;;;;;1.73;68.27;99387.45;88399;1274;93922;-66
2021/12/04 10:23:15;;;;;;;13.50;8.40;;;;;;;1.75;68.58;99386.55;88469;1275;79367;-66
2021/12/04 10:33:15;;;;;;;15.00;9.10;;;;;;;1.94;68.54;99363.17;88443;1269;94642;-64
2021/12/04 10:35:26;;;;;;;15.00;8.80;;;;;;;2.01;68.50;99362.46;88376;1274;77910;-67
2021/12/04 10:37:51;;;;;;;12.30;8.80;;;;;;;2.05;68.30;99357.90;88407;1277;82431;-67
2021/12/04 10:40:09;;;;;;;15.40;9.60;;;;;;;2.12;68.35;99360.15;88456;1275;97997;-64
2021/12/04 10:42:26;;;;;;;14.00;8.40;;;;;;;2.18;68.30;99355.98;88383;1275;89570;-64
2021/12/04 10:44:49;;;;;;;15.10;8.70;;;;;;;2.25;68.26;99355.38;88404;1274;94433;-64
2021/12/04 10:47:05;;;;;;;13.30;8.70;;;;;;;2.29;68.08;99353.95;88410;1268;77629;-63
2021/12/04 10:49:28;;;;;;;14.60;8.80;;;;;;;2.30;67.85;99351.41;88486;1272;81892;-63
2021/12/04 10:51:49;;;;;;;14.10;9.00;;;;;;;2.33;67.80;99346.33;88470;1275;96963;-65
2021/12/04 10:54:23;;;;;;;13.90;8.50;;;;;;;2.36;67.69;99344.56;88457;1268;89572;-64
2021/12/04 10:56:53;;;;;;;14.90;8.80;;;;;;;2.42;67.52;99345.41;88460;1275;95412;-66
2021/12/04 10:59:31;;;;;;;12.20;8.00;;;;;;;2.44;67.29;99342.89;88382;1278;77455;-64
2021/12/04 11:01:57;;;;;;;14.90;8.10;;;;;;;2.43;66.95;99339.66;88488;1275;82682;-63
2021/12/04 11:04:25;;;;;;;14.60;8.60;;;;;;;2.49;67.20;99340.60;88412;1271;97795;-67
2021/12/04 11:19:16;;;;;;;17.40;9.50;;;;;;;2.69;66.81;99332.26;88129;1277;87204;-63
2021/12/04 11:24:37;;;;;;;14.90;9.00;;;;;;;2.75;66.36;99331.27;88445;1276;78857;-64
2021/12/04 11:27:18;;;;;;;13.30;8.90;;;;;;;2.75;66.10;99329.74;88467;1269;80604;-63
2021/12/04 11:37:32;;;;;;;14.90;10.50;;;;;;;2.85;66.04;99329.71;88373;1278;77171;-66
2021/12/04 11:42:19;;;;;;;14.60;8.90;;;;;;;2.91;66.05;99325.98;88434;1269;98594;-64
2021/12/04 11:44:32;;;;;;;17.40;10.30;;;;;;;2.95;66.08;99325.73;88416;1271;87064;-64
2021/12/04 11:46:46;;;;;;;12.40;8.70;;;;;;;2.97;65.89;99326.05;88407;1274;93717;-64
2021/12/04 11:48:59;;;;;;;16.00;10.00;;;;;;;2.96;65.71;99325.56;88400;1271;77009;-64
2021/12/04 11:51:18;;;;;;;15.40;9.40;;;;;;;2.96;65.88;99328.58;88422;1274;82583;-66
2021/12/04 11:53:29;;;;;;;14.00;9.70;;;;;;;2.95;65.81;99323.74;88409;1278;97973;-64
2021/12/04 11:55:44;;;;;;;15.20;9.90;;;;;;;2.94;65.84;99324.24;88403;1274;85233;-64
2021/12/04 11:57:55;;;;;;;13.40;9.50;;;;;;;2.96;65.90;99324.50;88438;1276;95497;-65
2021/12/04 12:00:20;;;;;;;15.00;10.90;;;;;;;2.99;65.84;99323.52;88396;1274;80235;-64
2021/12/04 12:02:31;;;;;;;15.10;9.60;;;;;;;3.03;65.89;99325.23;88489;1272;82876;-61
2021/12/04 12:04:46;;;;;;;14.10;8.30;;;;;;;3.04;65.82;99322.61;88449;1274;98770;-64
2021/12/04 12:07:10;;;;;;;12.50;9.00;;;;;;;3.07;65.83;99320.52;88478;1275;88592;-66
2021/12/04 12:09:27;;;;;;;12.80;8.50;;;;;;;3.05;65.79;99320.94;88425;1274;95137;-64
2021/12/04 12:11:37;;;;;;;13.20;7.60;;;;;;;3.04;65.66;99319.96;88437;1278;78808;-64
2021/12/04 12:13:51;;;;;;;12.80;7.70;;;;;;;2.99;65.41;99316.91;88434;1278;81775;-68
2021/12/04 12:16:06;;;;;;;;;;;;;;;2.94;65.54;99315.71;88485;1275;98386;-65
2021/12/04 12:18:21;;;;;;;14.80;9.10;;;;;;;2.92;65.35;99320.34;88463;1275;88387;-66
2021/12/04 12:20:41;;;;;;;14.70;8.80;;;;;;;2.89;64.95;99321.04;88382;1277;95092;-64
2021/12/04 12:23:06;;;;;;;16.30;8.90;;;;;;;2.88;65.28;99321.64;88412;1275;78703;-63